Time;durP1;ratioP1;P1;durP2;ratioP2;P2;SDS_P1;SDS_P2;PMS_P1;PMS_P2;Temp;Humidity;BMP_temperature;BMP_pressure;BME280_temperature;BME280_humidity;BME280_pressure;Samples;Min_cycle;Max_cycle;Signal;HPM_P1;HPM_P2
2023/12/08 00:01:39;;;;;;;15.53;8.77;;;1.60;99.90;;;;;;4243022;27;20312;-60
2023/12/08 00:03:41;;;;;;;14.17;7.97;;;1.60;99.90;;;;;;4244339;27;20265;-60
2023/12/08 00:05:42;;;;;;;15.97;8.67;;;1.60;99.90;;;;;;4243683;27;20267;-59
2023/12/08 00:07:43;;;;;;;12.07;7.20;;;1.60;99.90;;;;;;4245048;27;20292;-61
2023/12/08 00:09:44;;;;;;;12.70;7.53;;;1.60;99.90;;;;;;4241684;27;20402;-62
2023/12/08 00:11:45;;;;;;;14.50;7.80;;;1.60;99.90;;;;;;4244208;27;20275;-59
2023/12/08 00:13:47;;;;;;;14.97;8.33;;;1.60;99.90;;;;;;4243263;27;20711;-60
2023/12/08 00:15:48;;;;;;;15.73;8.67;;;1.60;99.90;;;;;;4243648;27;20336;-61
2023/12/08 00:17:49;;;;;;;15.87;8.67;;;1.60;99.90;;;;;;4225202;28;20756;-63
2023/12/08 00:19:52;;;;;;;16.10;8.73;;;1.60;99.90;;;;;;4243338;27;20275;-59
2023/12/08 00:21:53;;;;;;;15.70;8.17;;;1.60;99.90;;;;;;4243953;27;20685;-59
2023/12/08 00:23:54;;;;;;;16.10;8.17;;;1.70;99.90;;;;;;4243154;27;20320;-59
2023/12/08 00:25:55;;;;;;;15.90;8.50;;;1.70;99.90;;;;;;4244068;27;20644;-59
2023/12/08 00:27:57;;;;;;;14.47;7.97;;;1.70;99.90;;;;;;4242141;27;20301;-60
2023/12/08 00:29:58;;;;;;;13.20;7.00;;;1.70;99.90;;;;;;4244112;27;20255;-58
2023/12/08 00:31:59;;;;;;;13.40;7.87;;;1.70;99.90;;;;;;4242890;27;20284;-57
2023/12/08 00:34:00;;;;;;;12.90;7.30;;;1.70;99.90;;;;;;4233259;27;20248;-59
2023/12/08 00:36:01;;;;;;;14.60;8.03;;;1.70;99.90;;;;;;4242258;28;20312;-59
2023/12/08 00:38:03;;;;;;;15.53;8.33;;;1.70;99.90;;;;;;4243264;28;20557;-61
2023/12/08 00:40:05;;;;;;;13.87;7.93;;;1.70;99.90;;;;;;4243401;28;20315;-61
2023/12/08 00:42:06;;;;;;;12.07;7.03;;;1.70;99.90;;;;;;4242986;28;20263;-59
2023/12/08 00:44:08;;;;;;;14.13;7.37;;;1.70;99.90;;;;;;4243039;28;20328;-57
2023/12/08 00:46:09;;;;;;;14.17;8.07;;;1.70;99.90;;;;;;4243786;28;20259;-60
2023/12/08 00:48:10;;;;;;;12.17;7.57;;;1.70;99.90;;;;;;4243097;28;20328;-59
2023/12/08 00:50:12;;;;;;;12.67;7.70;;;1.70;99.90;;;;;;4243659;28;20324;-56
2023/12/08 00:52:13;;;;;;;11.90;7.13;;;1.70;99.90;;;;;;4243663;28;20259;-58
2023/12/08 00:54:14;;;;;;;14.20;8.33;;;1.70;99.90;;;;;;4243176;28;20759;-59
2023/12/08 00:56:15;;;;;;;15.63;9.37;;;1.70;99.90;;;;;;4244062;28;20332;-59
2023/12/08 00:58:16;;;;;;;14.00;7.53;;;1.70;99.90;;;;;;4241826;28;20810;-57
2023/12/08 01:00:18;;;;;;;13.60;7.63;;;1.70;99.90;;;;;;4244220;28;20788;-60
2023/12/08 01:02:19;;;;;;;16.33;8.83;;;1.70;99.90;;;;;;4242678;28;20944;-62
2023/12/08 01:04:20;;;;;;;12.77;7.63;;;1.70;99.90;;;;;;4243775;28;20320;-59
2023/12/08 01:06:22;;;;;;;12.07;7.17;;;1.60;99.90;;;;;;4243074;28;21050;-59
2023/12/08 01:08:23;;;;;;;13.93;8.17;;;1.70;99.90;;;;;;4243452;28;20816;-55
2023/12/08 01:10:24;;;;;;;11.40;7.03;;;1.70;99.90;;;;;;4242668;28;20283;-57
2023/12/08 01:12:26;;;;;;;13.87;7.93;;;1.70;99.90;;;;;;4243404;28;20287;-59
2023/12/08 01:14:27;;;;;;;10.93;6.90;;;1.70;99.90;;;;;;4242572;28;20276;-55
2023/12/08 01:16:29;;;;;;;12.00;7.17;;;1.70;99.90;;;;;;4244321;28;20323;-58
2023/12/08 01:18:30;;;;;;;11.60;7.10;;;1.70;99.90;;;;;;4242441;28;20348;-56
2023/12/08 01:20:31;;;;;;;10.83;7.00;;;1.70;99.90;;;;;;4243811;28;20259;-58
2023/12/08 01:22:33;;;;;;;12.47;7.00;;;1.70;99.90;;;;;;4243228;28;20239;-58
2023/12/08 01:24:34;;;;;;;11.93;7.00;;;1.70;99.90;;;;;;4243632;27;20259;-58
2023/12/08 01:26:35;;;;;;;12.47;6.73;;;1.80;99.90;;;;;;4246911;27;20336;-58
2023/12/08 01:28:36;;;;;;;11.50;6.60;;;1.70;99.90;;;;;;4245764;27;20382;-57
2023/12/08 01:30:38;;;;;;;11.07;7.00;;;1.70;99.90;;;;;;4245729;27;20271;-60
2023/12/08 01:32:39;;;;;;;8.97;5.90;;;1.80;99.90;;;;;;4245786;27;20251;-59
2023/12/08 01:34:40;;;;;;;12.30;6.87;;;1.80;99.90;;;;;;4247130;27;20658;-58
2023/12/08 01:36:41;;;;;;;12.80;7.30;;;1.80;99.90;;;;;;4245274;27;20673;-59
2023/12/08 01:38:46;;;;;;;11.57;6.60;;;1.70;99.90;;;;;;4247088;27;20819;-58
2023/12/08 01:40:47;;;;;;;11.07;7.17;;;1.70;99.90;;;;;;4245406;27;20287;-59
2023/12/08 01:42:48;;;;;;;11.27;6.53;;;1.60;99.90;;;;;;4246937;27;20316;-60
2023/12/08 01:44:49;;;;;;;11.17;6.73;;;1.70;99.90;;;;;;4245751;27;20816;-59
2023/12/08 01:46:51;;;;;;;12.43;7.10;;;1.60;99.90;;;;;;4246594;27;20320;-59
2023/12/08 01:48:53;;;;;;;11.57;7.17;;;1.70;99.90;;;;;;4243424;27;20279;-56
2023/12/08 01:50:55;;;;;;;13.37;7.93;;;1.60;99.90;;;;;;4246783;27;20309;-59
2023/12/08 01:52:56;;;;;;;11.43;7.07;;;1.60;99.90;;;;;;4246006;27;20308;-55
2023/12/08 01:54:59;;;;;;;11.53;6.70;;;1.60;99.90;;;;;;4245954;27;20255;-56
2023/12/08 01:57:01;;;;;;;13.40;8.07;;;1.60;99.90;;;;;;4245080;27;20256;-60
2023/12/08 01:59:03;;;;;;;14.40;7.57;;;1.60;99.90;;;;;;4245277;27;20295;-56
2023/12/08 02:01:05;;;;;;;14.83;9.17;;;1.60;99.90;;;;;;4245481;27;20316;-60
2023/12/08 02:03:07;;;;;;;15.33;8.77;;;1.60;99.90;;;;;;4236074;27;20727;-60
2023/12/08 02:05:09;;;;;;;14.87;8.60;;;1.60;99.90;;;;;;4245684;27;20275;-59
2023/12/08 02:07:11;;;;;;;12.50;7.73;;;1.60;99.90;;;;;;4244806;27;20689;-57
2023/12/08 02:09:13;;;;;;;14.90;8.07;;;1.60;99.90;;;;;;4245736;27;20748;-60
2023/12/08 02:11:15;;;;;;;13.93;7.50;;;1.60;99.90;;;;;;4244605;27;20275;-61
2023/12/08 02:13:17;;;;;;;14.03;8.67;;;1.60;99.90;;;;;;4245958;27;20268;-55
2023/12/08 02:15:18;;;;;;;13.80;7.87;;;1.60;99.90;;;;;;4244984;27;20263;-57
2023/12/08 02:17:28;;;;;;;12.90;7.40;;;1.60;99.90;;;;;;4245564;27;20263;-58
2023/12/08 02:19:30;;;;;;;13.18;7.68;;;1.70;99.90;;;;;;4245355;27;20298;-58
2023/12/08 02:21:32;;;;;;;13.50;8.03;;;1.70;99.90;;;;;;4246632;27;20031;-60
2023/12/08 02:23:33;;;;;;;12.50;7.73;;;1.60;99.90;;;;;;4244309;27;20264;-61
2023/12/08 02:25:35;;;;;;;14.60;9.03;;;1.60;99.90;;;;;;4246442;27;20581;-59
2023/12/08 02:27:36;;;;;;;13.23;8.27;;;1.70;99.90;;;;;;4244541;27;20271;-61
2023/12/08 02:29:37;;;;;;;12.27;7.20;;;1.60;99.90;;;;;;4245745;27;20267;-58
2023/12/08 02:31:46;;;;;;;14.00;7.43;;;1.60;99.90;;;;;;4244985;27;20661;-57
2023/12/08 02:33:50;;;;;;;14.27;8.67;;;1.60;99.90;;;;;;4245255;27;20279;-58
2023/12/08 02:35:52;;;;;;;13.17;8.03;;;1.60;99.90;;;;;;4244981;27;20674;-61
2023/12/08 02:37:56;;;;;;;13.70;7.67;;;1.60;99.90;;;;;;4245134;27;20320;-58
2023/12/08 02:39:59;;;;;;;11.80;6.97;;;1.60;99.90;;;;;;4246275;27;20287;-61
2023/12/08 02:42:01;;;;;;;13.33;7.67;;;1.50;99.90;;;;;;4244160;27;20333;-58
2023/12/08 02:44:02;;;;;;;14.13;8.47;;;1.50;99.90;;;;;;4246219;27;20267;-57
2023/12/08 02:46:04;;;;;;;13.73;8.03;;;1.50;99.90;;;;;;4245016;27;20308;-59
2023/12/08 02:48:05;;;;;;;15.40;8.60;;;1.50;99.90;;;;;;4245788;27;20351;-55
2023/12/08 02:50:06;;;;;;;14.57;7.83;;;1.50;99.90;;;;;;4244301;27;20267;-60
2023/12/08 02:52:08;;;;;;;14.13;7.80;;;1.50;99.90;;;;;;4245880;27;20268;-57
2023/12/08 02:54:09;;;;;;;13.73;8.47;;;1.50;99.90;;;;;;4244904;27;20320;-60
2023/12/08 02:56:10;;;;;;;12.60;7.73;;;1.50;99.90;;;;;;4246169;27;20646;-55
2023/12/08 02:58:11;;;;;;;14.73;8.57;;;1.50;99.90;;;;;;4244887;27;20716;-60
2023/12/08 03:00:13;;;;;;;12.87;8.03;;;1.50;99.90;;;;;;4245096;27;20657;-61
2023/12/08 03:02:14;;;;;;;12.10;7.00;;;1.50;99.90;;;;;;4244631;27;20263;-55
2023/12/08 03:04:15;;;;;;;12.63;7.80;;;1.60;99.90;;;;;;4245424;27;20267;-58
2023/12/08 03:06:16;;;;;;;13.17;7.20;;;1.60;99.90;;;;;;4245037;27;20271;-59
2023/12/08 03:08:17;;;;;;;11.00;6.73;;;1.60;99.90;;;;;;4244647;27;20816;-61
2023/12/08 03:10:19;;;;;;;9.50;6.13;;;1.60;99.90;;;;;;4244781;27;20343;-60
2023/12/08 03:12:20;;;;;;;14.17;8.13;;;1.60;99.90;;;;;;4243794;27;20312;-60
2023/12/08 03:14:21;;;;;;;10.90;6.90;;;1.60;99.90;;;;;;4244242;27;20713;-61
2023/12/08 03:16:23;;;;;;;9.03;5.97;;;1.60;99.90;;;;;;4244228;27;20743;-55
2023/12/08 03:18:24;;;;;;;12.60;7.67;;;1.60;99.90;;;;;;4245471;27;20336;-59
2023/12/08 03:20:25;;;;;;;12.37;6.90;;;1.60;99.90;;;;;;4243491;27;20303;-59
2023/12/08 03:22:26;;;;;;;10.97;7.07;;;1.60;99.90;;;;;;4245138;27;20263;-58
2023/12/08 03:24:28;;;;;;;11.63;6.70;;;1.60;99.90;;;;;;4243566;27;20300;-58
2023/12/08 03:26:29;;;;;;;11.90;6.87;;;1.60;99.90;;;;;;4244296;27;20332;-60
2023/12/08 03:28:30;;;;;;;12.67;7.37;;;1.60;99.90;;;;;;4244160;27;20632;-59
2023/12/08 03:30:31;;;;;;;12.00;7.10;;;1.60;99.90;;;;;;4245183;27;20271;-54
2023/12/08 03:32:32;;;;;;;13.63;7.77;;;1.60;99.90;;;;;;4243238;27;20682;-60
2023/12/08 03:34:34;;;;;;;12.00;7.30;;;1.60;99.90;;;;;;4244505;27;20267;-59
2023/12/08 03:36:35;;;;;;;12.90;8.00;;;1.60;99.90;;;;;;4244201;27;20264;-58
2023/12/08 03:38:36;;;;;;;14.00;7.53;;;1.60;99.90;;;;;;4242969;27;20267;-59
2023/12/08 03:40:37;;;;;;;12.70;7.67;;;1.60;99.90;;;;;;4243316;27;20340;-60
2023/12/08 03:42:38;;;;;;;13.83;8.00;;;1.60;99.90;;;;;;4243316;27;20676;-60
2023/12/08 03:44:40;;;;;;;12.37;8.20;;;1.60;99.90;;;;;;4244552;27;20731;-59
2023/12/08 03:46:44;;;;;;;14.90;8.70;;;1.60;99.90;;;;;;4242856;27;20275;-57
2023/12/08 03:48:45;;;;;;;18.10;9.30;;;1.70;99.90;;;;;;4244241;27;20955;-60
2023/12/08 03:50:47;;;;;;;16.17;8.00;;;1.60;99.90;;;;;;4243528;27;20279;-55
2023/12/08 03:52:52;;;;;;;15.37;8.53;;;1.60;99.90;;;;;;4245311;27;20614;-59
2023/12/08 03:54:54;;;;;;;14.20;7.73;;;1.70;99.90;;;;;;4242784;27;20263;-58
2023/12/08 03:56:55;;;;;;;14.93;8.57;;;1.70;99.90;;;;;;4245190;27;20271;-59
2023/12/08 03:58:56;;;;;;;17.37;8.97;;;1.70;99.90;;;;;;4224910;28;20396;-58
2023/12/08 04:00:57;;;;;;;14.60;8.47;;;1.70;99.90;;;;;;4244252;27;20263;-62
2023/12/08 04:02:59;;;;;;;15.27;7.83;;;1.70;99.90;;;;;;4243148;27;20333;-62
2023/12/08 04:05:00;;;;;;;12.53;7.97;;;1.70;99.90;;;;;;4243270;27;20271;-60
2023/12/08 04:07:02;;;;;;;12.43;7.87;;;1.70;99.90;;;;;;4243780;27;20256;-56
2023/12/08 04:09:03;;;;;;;12.13;8.03;;;1.70;99.90;;;;;;4244140;27;21647;-60
2023/12/08 04:11:05;;;;;;;14.23;8.17;;;1.70;99.90;;;;;;4244470;27;20259;-57
2023/12/08 04:13:06;;;;;;;14.63;8.33;;;1.80;99.90;;;;;;4243668;27;20352;-61
2023/12/08 04:15:08;;;;;;;14.87;8.67;;;1.80;99.90;;;;;;4243057;27;20316;-57
2023/12/08 04:17:09;;;;;;;14.53;8.10;;;1.80;99.90;;;;;;4242307;27;20312;-58
2023/12/08 04:19:12;;;;;;;13.00;8.07;;;1.80;99.90;;;;;;4244274;27;20295;-58
2023/12/08 04:21:20;;;;;;;14.23;7.77;;;1.80;99.90;;;;;;4243181;27;20279;-58
2023/12/08 04:23:21;;;;;;;15.47;7.93;;;1.80;99.90;;;;;;4244890;27;20327;-58
2023/12/08 04:25:22;;;;;;;11.77;6.80;;;1.80;99.90;;;;;;4242706;27;20268;-59
2023/12/08 04:27:24;;;;;;;13.33;7.90;;;1.80;99.90;;;;;;4244615;27;20259;-54
2023/12/08 04:29:25;;;;;;;13.53;8.43;;;1.80;99.90;;;;;;4243170;27;20332;-55
2023/12/08 04:31:26;;;;;;;12.43;7.23;;;1.80;99.90;;;;;;4244048;27;20272;-56
2023/12/08 04:33:27;;;;;;;9.80;6.80;;;1.80;99.90;;;;;;4242832;27;20763;-57
2023/12/08 04:35:28;;;;;;;12.90;6.90;;;1.70;99.90;;;;;;4242958;27;20267;-54
2023/12/08 04:37:29;;;;;;;13.33;7.93;;;1.70;99.90;;;;;;4243195;28;20316;-58
2023/12/08 04:39:31;;;;;;;10.63;6.97;;;1.70;99.90;;;;;;4244204;28;20778;-59
2023/12/08 04:41:32;;;;;;;11.13;7.10;;;1.70;99.90;;;;;;4243898;28;20288;-59
2023/12/08 04:43:33;;;;;;;9.37;6.47;;;1.70;99.90;;;;;;4243099;28;20263;-59
2023/12/08 04:45:35;;;;;;;9.93;6.40;;;1.70;99.90;;;;;;4243568;28;20264;-59
2023/12/08 04:47:36;;;;;;;11.87;6.33;;;1.70;99.90;;;;;;4242934;28;20305;-56
2023/12/08 04:49:38;;;;;;;10.30;5.83;;;1.80;99.90;;;;;;4243660;28;20722;-58
2023/12/08 04:51:43;;;;;;;11.07;6.50;;;1.70;99.90;;;;;;4242924;28;20255;-56
2023/12/08 04:53:44;;;;;;;9.93;6.37;;;1.70;99.90;;;;;;4244354;28;20260;-59
2023/12/08 04:55:45;;;;;;;10.47;6.33;;;1.70;99.90;;;;;;4243153;28;20328;-59
2023/12/08 04:57:46;;;;;;;10.17;6.43;;;1.70;99.90;;;;;;4244223;28;20372;-58
2023/12/08 04:59:47;;;;;;;10.87;6.57;;;1.80;99.90;;;;;;4244697;27;20646;-58
2023/12/08 05:01:52;;;;;;;8.67;6.20;;;1.70;99.90;;;;;;4246644;27;20811;-55
2023/12/08 05:03:53;;;;;;;8.40;5.90;;;1.70;99.90;;;;;;4245757;27;20283;-58
2023/12/08 05:05:54;;;;;;;11.53;7.00;;;1.70;99.90;;;;;;4247823;27;20279;-57
2023/12/08 05:07:55;;;;;;;8.43;5.60;;;1.70;99.90;;;;;;4228083;28;20321;-57
2023/12/08 05:09:57;;;;;;;9.43;6.23;;;1.70;99.90;;;;;;4246758;27;20283;-59
2023/12/08 05:11:58;;;;;;;12.33;6.13;;;1.70;99.90;;;;;;4245212;27;20300;-56
2023/12/08 05:13:59;;;;;;;9.57;5.97;;;1.70;99.90;;;;;;4246877;27;20256;-57
2023/12/08 05:16:00;;;;;;;11.60;6.73;;;1.70;99.90;;;;;;4245812;27;20272;-59
2023/12/08 05:18:01;;;;;;;11.50;6.93;;;1.70;99.90;;;;;;4245982;27;20804;-58
2023/12/08 05:20:03;;;;;;;12.93;6.73;;;1.70;99.90;;;;;;4246099;27;20828;-59
2023/12/08 05:22:04;;;;;;;11.50;6.93;;;1.70;99.90;;;;;;4244789;27;20272;-58
2023/12/08 05:24:06;;;;;;;14.73;8.20;;;1.70;99.90;;;;;;4246325;27;20328;-56
2023/12/08 05:26:07;;;;;;;14.93;8.10;;;1.70;99.90;;;;;;4244552;27;20283;-57
2023/12/08 05:28:09;;;;;;;11.20;7.13;;;1.70;99.90;;;;;;4246161;27;20332;-59
2023/12/08 05:30:10;;;;;;;14.10;7.83;;;1.70;99.90;;;;;;4243839;27;20292;-59
2023/12/08 05:32:12;;;;;;;14.43;7.97;;;1.70;99.90;;;;;;4235676;27;20316;-60
2023/12/08 05:34:13;;;;;;;17.40;8.97;;;1.70;99.90;;;;;;4246026;27;20324;-60
2023/12/08 05:36:14;;;;;;;16.37;8.87;;;1.80;99.90;;;;;;4246326;27;20275;-57
2023/12/08 05:38:15;;;;;;;15.10;8.47;;;1.80;99.90;;;;;;4246051;27;20275;-60
2023/12/08 05:40:18;;;;;;;17.17;8.93;;;1.80;99.90;;;;;;4245322;27;20291;-63
2023/12/08 05:42:19;;;;;;;14.73;8.07;;;1.80;99.90;;;;;;4227092;28;20314;-59
2023/12/08 05:44:20;;;;;;;13.57;7.77;;;1.80;99.90;;;;;;4245489;27;20287;-60
2023/12/08 05:46:22;;;;;;;13.07;8.10;;;1.80;99.90;;;;;;4244445;27;20267;-61
2023/12/08 05:48:23;;;;;;;13.73;6.70;;;1.90;99.90;;;;;;4245216;27;20324;-59
2023/12/08 05:50:24;;;;;;;14.27;7.20;;;1.90;99.90;;;;;;4210769;28;20326;-58
2023/12/08 05:52:26;;;;;;;10.50;6.10;;;1.80;99.90;;;;;;4244942;27;20666;-61
2023/12/08 05:54:27;;;;;;;9.27;5.93;;;1.80;99.90;;;;;;4245755;27;20684;-60
2023/12/08 05:56:29;;;;;;;8.50;5.93;;;1.80;99.90;;;;;;4244550;27;20271;-59
2023/12/08 05:58:30;;;;;;;9.90;5.90;;;1.70;99.90;;;;;;4246678;27;20371;-61
2023/12/08 06:00:32;;;;;;;12.03;6.30;;;1.70;99.90;;;;;;4245258;27;20303;-59
2023/12/08 06:02:33;;;;;;;12.43;6.63;;;1.70;99.90;;;;;;4246916;27;20271;-60
2023/12/08 06:04:34;;;;;;;10.27;6.30;;;1.70;99.90;;;;;;4245478;27;20355;-60
2023/12/08 06:06:35;;;;;;;12.43;6.77;;;1.70;99.90;;;;;;4246779;27;20264;-61
2023/12/08 06:08:37;;;;;;;10.10;5.97;;;1.70;99.90;;;;;;4245127;27;20275;-59
2023/12/08 06:10:38;;;;;;;10.37;7.00;;;1.70;99.90;;;;;;4245504;27;20331;-60
2023/12/08 06:12:40;;;;;;;13.23;7.80;;;1.70;99.90;;;;;;4245595;27;20252;-59
2023/12/08 06:14:41;;;;;;;11.93;7.30;;;1.70;99.90;;;;;;4245663;27;20316;-60
2023/12/08 06:16:43;;;;;;;12.13;7.33;;;1.70;99.90;;;;;;4245144;27;20340;-60
2023/12/08 06:18:45;;;;;;;11.90;7.17;;;1.70;99.90;;;;;;4245775;27;20422;-60
2023/12/08 06:20:46;;;;;;;13.57;7.77;;;1.70;99.90;;;;;;4245042;27;20720;-59
2023/12/08 06:22:47;;;;;;;14.20;8.00;;;1.70;99.90;;;;;;4244840;27;20263;-58
2023/12/08 06:24:48;;;;;;;11.80;7.87;;;1.70;99.90;;;;;;4245931;27;20416;-59
2023/12/08 06:26:50;;;;;;;15.30;8.70;;;1.70;99.90;;;;;;4244921;27;20355;-59
2023/12/08 06:28:51;;;;;;;14.80;8.43;;;1.70;99.90;;;;;;4245912;27;20272;-58
2023/12/08 06:30:52;;;;;;;14.17;8.03;;;1.80;99.90;;;;;;4245240;27;20379;-57
2023/12/08 06:32:53;;;;;;;16.80;8.33;;;1.80;99.90;;;;;;4245329;27;20301;-58
2023/12/08 06:34:55;;;;;;;13.33;8.63;;;1.80;99.90;;;;;;4245055;27;20328;-59
2023/12/08 06:36:56;;;;;;;16.17;8.37;;;1.80;99.90;;;;;;4246173;27;20268;-59
2023/12/08 06:38:57;;;;;;;12.70;7.60;;;1.80;99.90;;;;;;4244468;27;20267;-58
2023/12/08 06:40:58;;;;;;;12.20;7.60;;;1.80;99.90;;;;;;4245155;27;20304;-58
2023/12/08 06:42:59;;;;;;;12.13;6.87;;;1.80;99.90;;;;;;4244408;27;20292;-57
2023/12/08 06:45:02;;;;;;;12.37;6.90;;;1.80;99.90;;;;;;4245175;27;20271;-58
2023/12/08 06:47:03;;;;;;;12.13;7.00;;;1.90;99.90;;;;;;4245046;27;20268;-58
2023/12/08 06:49:05;;;;;;;11.10;7.60;;;1.90;99.90;;;;;;4244255;27;20279;-59
2023/12/08 06:51:06;;;;;;;14.10;7.17;;;1.90;99.90;;;;;;4245138;27;20792;-58
2023/12/08 06:53:07;;;;;;;12.23;7.07;;;1.90;99.90;;;;;;4244832;27;20271;-59
2023/12/08 06:55:08;;;;;;;9.27;6.40;;;1.90;99.90;;;;;;4245286;27;20332;-59
2023/12/08 06:57:09;;;;;;;13.47;8.10;;;2.00;99.90;;;;;;4244597;27;20656;-59
2023/12/08 06:59:11;;;;;;;15.23;7.17;;;2.00;99.90;;;;;;4245215;27;20368;-58
2023/12/08 07:01:12;;;;;;;15.70;8.57;;;2.00;99.90;;;;;;4244481;27;20291;-56
2023/12/08 07:03:13;;;;;;;17.83;9.23;;;2.00;99.90;;;;;;4245280;27;20535;-59
2023/12/08 07:05:19;;;;;;;19.30;8.23;;;2.10;99.90;;;;;;4243671;27;20271;-58
2023/12/08 07:07:20;;;;;;;15.50;9.00;;;2.10;99.90;;;;;;4245908;27;20715;-60
2023/12/08 07:09:21;;;;;;;15.10;9.00;;;2.10;99.90;;;;;;4244211;27;20299;-60
2023/12/08 07:11:23;;;;;;;14.70;8.37;;;2.10;99.90;;;;;;4245671;27;20316;-61
2023/12/08 07:13:24;;;;;;;14.70;8.20;;;2.10;99.90;;;;;;4244447;27;20247;-60
2023/12/08 07:15:25;;;;;;;12.83;7.43;;;2.10;99.90;;;;;;4244737;27;20259;-57
2023/12/08 07:17:26;;;;;;;15.50;8.77;;;2.20;99.90;;;;;;4244810;27;20708;-60
2023/12/08 07:19:27;;;;;;;17.13;8.47;;;2.20;99.90;;;;;;4244456;27;20275;-60
2023/12/08 07:21:28;;;;;;;15.63;8.00;;;2.20;99.90;;;;;;4244649;27;20291;-59
2023/12/08 07:23:29;;;;;;;15.93;8.20;;;2.20;99.90;;;;;;4243529;27;20263;-59
2023/12/08 07:25:32;;;;;;;14.57;8.23;;;2.30;99.90;;;;;;4244877;27;20312;-59
2023/12/08 07:27:33;;;;;;;14.20;8.03;;;2.30;99.90;;;;;;4244223;27;20309;-59
2023/12/08 07:29:34;;;;;;;14.17;7.50;;;2.30;99.90;;;;;;4244651;27;20404;-60
2023/12/08 07:31:35;;;;;;;12.90;8.67;;;2.30;99.90;;;;;;4244008;27;20641;-59
2023/12/08 07:33:36;;;;;;;14.70;8.13;;;2.40;99.90;;;;;;4244888;27;20751;-60
2023/12/08 07:35:37;;;;;;;13.87;8.27;;;2.40;99.90;;;;;;4242767;27;20294;-60
2023/12/08 07:37:42;;;;;;;14.70;8.00;;;2.40;99.90;;;;;;4245536;27;20260;-60
2023/12/08 07:39:43;;;;;;;12.83;6.90;;;2.50;99.90;;;;;;4243352;27;20313;-58
2023/12/08 07:41:44;;;;;;;11.80;7.10;;;2.50;99.90;;;;;;4244372;27;20271;-61
2023/12/08 07:43:46;;;;;;;11.77;6.63;;;2.60;99.90;;;;;;4225326;28;20260;-61
2023/12/08 07:45:47;;;;;;;12.10;6.67;;;2.60;99.90;;;;;;4243883;27;20332;-60
2023/12/08 07:47:48;;;;;;;16.87;8.23;;;2.70;99.90;;;;;;4243361;27;20295;-60
2023/12/08 07:49:49;;;;;;;15.27;7.37;;;2.70;99.90;;;;;;4244075;27;20308;-58
2023/12/08 07:51:50;;;;;;;13.47;7.07;;;2.80;99.90;;;;;;4244311;27;20251;-60
2023/12/08 07:53:52;;;;;;;13.50;7.70;;;2.80;99.90;;;;;;4243116;27;20340;-58
2023/12/08 07:55:53;;;;;;;12.97;6.70;;;2.90;99.90;;;;;;4244806;27;20271;-59
2023/12/08 07:57:54;;;;;;;9.70;6.17;;;2.90;99.90;;;;;;4242841;27;20673;-61
2023/12/08 07:59:55;;;;;;;11.10;7.37;;;2.90;99.90;;;;;;4244081;27;20345;-60
2023/12/08 08:01:57;;;;;;;15.23;8.23;;;2.90;99.90;;;;;;4243775;27;20263;-60
2023/12/08 08:03:58;;;;;;;14.93;8.77;;;2.90;99.90;;;;;;4243759;27;20312;-59
2023/12/08 08:05:59;;;;;;;14.37;9.07;;;3.00;99.90;;;;;;4243065;27;20316;-57
2023/12/08 08:08:02;;;;;;;13.53;7.33;;;3.00;99.90;;;;;;4244267;27;20605;-61
2023/12/08 08:10:04;;;;;;;12.80;7.53;;;3.00;99.90;;;;;;4242798;27;20324;-60
2023/12/08 08:12:06;;;;;;;15.67;7.13;;;3.00;99.90;;;;;;4244643;27;20792;-59
2023/12/08 08:14:07;;;;;;;14.17;6.90;;;3.00;99.90;;;;;;4242417;27;20275;-59
2023/12/08 08:16:08;;;;;;;14.33;7.87;;;3.10;99.90;;;;;;4243902;27;20275;-62
2023/12/08 08:18:09;;;;;;;11.77;6.27;;;3.10;99.90;;;;;;4242933;27;20248;-58
2023/12/08 08:20:11;;;;;;;11.20;6.07;;;3.10;99.90;;;;;;4244108;27;20336;-57
2023/12/08 08:22:12;;;;;;;9.70;6.27;;;3.10;99.90;;;;;;4243942;27;20272;-60
2023/12/08 08:24:13;;;;;;;13.30;8.20;;;3.20;99.90;;;;;;4242809;27;20275;-59
2023/12/08 08:26:14;;;;;;;14.30;7.93;;;3.20;99.90;;;;;;4244195;27;20312;-59
2023/12/08 08:28:15;;;;;;;16.37;8.53;;;3.20;99.90;;;;;;4243293;27;20267;-58
2023/12/08 08:30:18;;;;;;;18.63;7.87;;;3.10;99.90;;;;;;4244643;27;20308;-58
2023/12/08 08:32:19;;;;;;;10.80;6.53;;;3.10;99.90;;;;;;4242442;27;20251;-57
2023/12/08 08:34:20;;;;;;;15.87;7.80;;;3.10;99.90;;;;;;4244521;27;20347;-59
2023/12/08 08:36:22;;;;;;;14.20;8.73;;;3.10;99.90;;;;;;4243292;27;20336;-59
2023/12/08 08:38:23;;;;;;;16.63;8.67;;;3.00;99.90;;;;;;4244611;27;20305;-59
2023/12/08 08:40:24;;;;;;;14.70;8.70;;;3.00;99.90;;;;;;4241761;28;20295;-59
2023/12/08 08:42:26;;;;;;;13.50;8.60;;;3.00;99.90;;;;;;4243454;28;20336;-59
2023/12/08 08:44:27;;;;;;;14.20;8.47;;;3.00;99.90;;;;;;4243416;28;20604;-60
2023/12/08 08:46:29;;;;;;;23.27;9.20;;;2.90;99.90;;;;;;4244278;28;20328;-59
2023/12/08 08:48:31;;;;;;;16.33;8.37;;;2.90;99.90;;;;;;4242846;28;20308;-60
2023/12/08 08:50:32;;;;;;;17.43;7.27;;;2.90;99.90;;;;;;4243892;28;20259;-61
2023/12/08 08:52:35;;;;;;;23.63;8.17;;;2.80;99.90;;;;;;4242744;28;20746;-59
2023/12/08 08:54:36;;;;;;;16.10;7.77;;;2.70;99.90;;;;;;4243156;28;20288;-61
2023/12/08 08:56:38;;;;;;;16.93;7.77;;;2.70;99.90;;;;;;4243855;28;20300;-59
2023/12/08 08:58:39;;;;;;;24.70;9.33;;;2.70;99.90;;;;;;4242581;28;20263;-57
2023/12/08 09:00:40;;;;;;;27.10;9.73;;;2.60;99.90;;;;;;4244125;28;20291;-61
2023/12/08 09:02:43;;;;;;;18.40;9.27;;;2.60;99.90;;;;;;4243150;28;20727;-62
2023/12/08 09:04:44;;;;;;;19.80;8.63;;;2.50;99.90;;;;;;4243444;28;20271;-58
2023/12/08 09:06:45;;;;;;;23.77;8.97;;;2.50;99.90;;;;;;4242473;28;20279;-60
2023/12/08 09:08:47;;;;;;;21.50;8.83;;;2.50;99.90;;;;;;4244569;28;20443;-59
2023/12/08 09:10:50;;;;;;;18.80;8.17;;;2.50;99.90;;;;;;4242004;28;20741;-60
2023/12/08 09:12:51;;;;;;;18.13;8.77;;;2.50;99.90;;;;;;4244170;28;20316;-62
2023/12/08 09:14:52;;;;;;;21.00;8.27;;;2.50;99.90;;;;;;4242699;28;20351;-61
2023/12/08 09:16:54;;;;;;;23.77;8.50;;;2.50;99.90;;;;;;4243373;28;20293;-61
2023/12/08 09:18:55;;;;;;;20.80;8.37;;;2.60;99.90;;;;;;4242367;28;20363;-62
2023/12/08 09:20:56;;;;;;;21.40;11.40;;;2.60;99.90;;;;;;4243741;28;20283;-59
2023/12/08 09:22:57;;;;;;;18.10;9.77;;;2.70;99.90;;;;;;4243088;28;20301;-60
2023/12/08 09:24:59;;;;;;;15.83;8.27;;;2.70;99.90;;;;;;4243252;28;20271;-60
2023/12/08 09:27:01;;;;;;;18.93;11.13;;;2.70;99.90;;;;;;4242701;28;20267;-59
2023/12/08 09:29:02;;;;;;;14.80;8.53;;;2.80;99.90;;;;;;4224059;28;20789;-61
2023/12/08 09:31:03;;;;;;;15.07;7.50;;;2.80;99.90;;;;;;4243638;28;20800;-60
2023/12/08 09:33:05;;;;;;;15.00;8.43;;;2.90;99.90;;;;;;4242267;28;20271;-60
2023/12/08 09:35:07;;;;;;;20.93;9.00;;;2.90;99.90;;;;;;4243099;28;20923;-61
2023/12/08 09:37:08;;;;;;;15.20;8.40;;;2.90;99.90;;;;;;4242751;28;20305;-60
2023/12/08 09:39:10;;;;;;;21.67;10.03;;;2.90;99.90;;;;;;4244034;28;20267;-58
2023/12/08 09:41:13;;;;;;;17.70;9.40;;;2.90;99.90;;;;;;4242311;28;20455;-60
2023/12/08 09:43:33;;;;;;;21.10;11.53;;;3.00;99.90;;;;;;4242554;28;20279;-59
2023/12/08 09:45:35;;;;;;;16.67;9.93;;;3.00;99.90;;;;;;4243816;27;20361;-57
2023/12/08 09:47:38;;;;;;;14.87;8.53;;;3.00;99.90;;;;;;4246547;27;20467;-60
2023/12/08 09:49:46;;;;;;;17.60;9.73;;;3.00;99.90;;;;;;4245680;27;20289;-59
2023/12/08 09:51:47;;;;;;;18.13;9.30;;;3.00;99.90;;;;;;4246765;27;20320;-59
2023/12/08 09:53:49;;;;;;;20.83;9.80;;;3.00;99.90;;;;;;4244902;27;20259;-59
2023/12/08 09:55:53;;;;;;;15.07;9.47;;;3.00;99.90;;;;;;4247006;27;20320;-56
2023/12/08 09:57:55;;;;;;;18.17;10.63;;;3.00;99.90;;;;;;4245513;27;20259;-60
2023/12/08 10:00:05;;;;;;;20.70;11.10;;;2.90;99.90;;;;;;4245935;27;20669;-58
2023/12/08 10:02:07;;;;;;;19.40;10.57;;;3.00;99.90;;;;;;4244857;27;20847;-59
2023/12/08 10:04:09;;;;;;;12.87;7.83;;;2.90;99.90;;;;;;4246331;27;20019;-59
2023/12/08 10:06:10;;;;;;;15.17;8.00;;;2.80;99.90;;;;;;4245992;27;20308;-60
2023/12/08 10:08:12;;;;;;;16.13;9.10;;;2.90;99.90;;;;;;4245878;27;20268;-58
2023/12/08 10:10:13;;;;;;;14.03;8.80;;;2.90;99.90;;;;;;4245621;27;20255;-59
2023/12/08 10:12:15;;;;;;;14.13;8.67;;;2.80;99.90;;;;;;4244311;27;20361;-60
2023/12/08 10:14:18;;;;;;;15.77;9.33;;;2.80;99.90;;;;;;4246240;27;20731;-59
2023/12/08 10:16:19;;;;;;;15.67;8.97;;;2.80;99.90;;;;;;4245136;27;21767;-59
2023/12/08 10:18:25;;;;;;;18.13;9.93;;;2.80;99.90;;;;;;4246280;27;20263;-62
2023/12/08 10:20:27;;;;;;;14.57;8.27;;;2.80;99.90;;;;;;4244353;27;20332;-61
2023/12/08 10:22:28;;;;;;;14.17;8.10;;;2.80;99.90;;;;;;4246353;27;20335;-62
2023/12/08 10:24:30;;;;;;;13.90;7.27;;;2.70;99.90;;;;;;4245123;27;20263;-60
2023/12/08 10:26:32;;;;;;;13.17;8.23;;;2.70;99.90;;;;;;4246538;27;20267;-60
2023/12/08 10:28:34;;;;;;;16.43;8.83;;;2.70;99.90;;;;;;4244811;27;20907;-56
2023/12/08 10:30:35;;;;;;;13.50;8.67;;;2.70;99.90;;;;;;4246157;27;20301;-58
2023/12/08 10:32:38;;;;;;;13.73;8.73;;;2.70;99.90;;;;;;4244667;27;20992;-59
2023/12/08 10:34:40;;;;;;;11.63;7.60;;;2.70;99.90;;;;;;4245007;27;20303;-58